createdAt,value
2023-03-26T00:01:05.689Z,7.74
2023-03-26T00:03:36.032Z,7.75
2023-03-26T00:06:12.681Z,7.77
2023-03-26T00:08:41.790Z,7.81
2023-03-26T00:11:12.015Z,7.80
2023-03-26T00:13:38.981Z,7.80
2023-03-26T00:16:06.721Z,7.80
2023-03-26T00:18:35.089Z,7.82
2023-03-26T00:21:05.025Z,7.81
2023-03-26T00:23:35.269Z,7.82
2023-03-26T00:26:03.461Z,7.83
2023-03-26T00:28:30.904Z,7.84
2023-03-26T00:31:02.428Z,7.86
2023-03-26T00:33:29.676Z,7.86
2023-03-26T00:35:58.725Z,7.85
2023-03-26T00:38:26.962Z,7.86
2023-03-26T00:40:54.086Z,7.85
2023-03-26T00:43:22.883Z,7.87
2023-03-26T00:45:54.835Z,7.85
2023-03-26T00:48:31.529Z,7.86
2023-03-26T00:51:10.379Z,7.85
2023-03-26T00:53:39.009Z,7.84
2023-03-26T00:56:06.672Z,7.80
2023-03-26T00:58:34.052Z,7.77
2023-03-26T01:01:04.350Z,7.73
2023-03-26T01:03:34.015Z,7.71
2023-03-26T01:06:08.213Z,7.70
2023-03-26T01:08:40.680Z,7.67
2023-03-26T01:11:18.689Z,7.65
2023-03-26T01:13:49.651Z,7.65
2023-03-26T01:16:26.557Z,7.64
2023-03-26T01:18:54.665Z,7.58
2023-03-26T01:21:28.717Z,7.56
2023-03-26T01:24:15.637Z,7.56
2023-03-26T01:26:57.658Z,7.54
2023-03-26T01:29:52.960Z,7.51
2023-03-26T01:32:48.697Z,7.47
2023-03-26T01:35:27.758Z,7.42
2023-03-26T01:37:58.602Z,7.37
2023-03-26T01:40:42.796Z,7.37
2023-03-26T01:43:33.568Z,7.36
2023-03-26T01:46:03.755Z,7.36
2023-03-26T01:48:36.186Z,7.34
2023-03-26T01:51:03.927Z,7.33
2023-03-26T01:53:32.800Z,7.33
2023-03-26T01:56:29.214Z,7.32
2023-03-26T01:59:07.425Z,7.30
2023-03-26T02:02:00.126Z,7.25
2023-03-26T02:04:37.674Z,7.26
2023-03-26T02:07:34.641Z,7.27
2023-03-26T02:10:10.578Z,7.26
2023-03-26T02:12:37.771Z,7.26
2023-03-26T02:15:05.846Z,7.26
2023-03-26T02:17:33.269Z,7.24
2023-03-26T02:20:05.746Z,7.20
2023-03-26T02:22:32.406Z,7.14
2023-03-26T02:24:58.857Z,7.09
2023-03-26T02:27:25.622Z,7.06
2023-03-26T02:29:52.233Z,6.99
2023-03-26T02:32:20.194Z,6.93
2023-03-26T02:34:47.283Z,6.88
2023-03-26T02:37:13.932Z,6.83
2023-03-26T02:39:40.436Z,6.81
2023-03-26T02:42:06.870Z,6.78
2023-03-26T02:44:33.457Z,6.78
2023-03-26T02:47:02.688Z,6.79
2023-03-26T02:49:29.140Z,6.79
2023-03-26T02:51:56.321Z,6.78
2023-03-26T02:54:23.622Z,6.78
2023-03-26T02:56:50.204Z,6.80
2023-03-26T02:59:16.945Z,6.82
2023-03-26T03:01:43.632Z,6.82
2023-03-26T03:04:11.968Z,6.85
2023-03-26T03:06:40.519Z,6.85
2023-03-26T03:09:11.266Z,6.86
2023-03-26T03:11:41.311Z,6.89
2023-03-26T03:14:07.928Z,6.91
2023-03-26T03:16:34.396Z,6.92
2023-03-26T03:19:01.951Z,6.94
2023-03-26T03:21:29.383Z,6.96
2023-03-26T03:24:00.150Z,6.95
2023-03-26T03:26:27.808Z,6.94
2023-03-26T03:28:56.584Z,6.94
2023-03-26T03:31:24.965Z,6.91
2023-03-26T03:33:52.165Z,6.90
2023-03-26T03:36:23.276Z,6.87
2023-03-26T03:38:51.302Z,6.85
2023-03-26T03:41:18.778Z,6.82
2023-03-26T03:43:45.814Z,6.77
2023-03-26T03:46:12.465Z,6.75
2023-03-26T03:48:39.206Z,6.74
2023-03-26T03:51:06.331Z,6.76
2023-03-26T03:53:36.906Z,6.76
2023-03-26T03:56:04.601Z,6.76
2023-03-26T03:58:31.221Z,6.75
2023-03-26T04:01:00.927Z,6.73
2023-03-26T04:03:33.879Z,6.71
2023-03-26T04:06:01.461Z,6.68
2023-03-26T04:08:28.060Z,6.66
2023-03-26T04:10:54.782Z,6.62
2023-03-26T04:13:21.656Z,6.58
2023-03-26T04:15:48.389Z,6.52
2023-03-26T04:18:15.122Z,6.47
2023-03-26T04:20:46.768Z,6.41
2023-03-26T04:23:18.633Z,6.37
2023-03-26T04:25:49.085Z,6.33
2023-03-26T04:28:42.386Z,6.30
2023-03-26T04:31:15.757Z,6.25
2023-03-26T04:33:48.793Z,6.22
2023-03-26T04:36:16.863Z,6.21
2023-03-26T04:38:45.940Z,6.23
2023-03-26T04:41:14.098Z,6.25
2023-03-26T04:43:42.552Z,6.28
2023-03-26T04:46:10.705Z,6.31
2023-03-26T04:48:38.748Z,6.37
2023-03-26T04:51:10.225Z,6.42
2023-03-26T04:53:37.147Z,6.47
2023-03-26T04:56:23.617Z,6.53
2023-03-26T04:58:51.818Z,6.60
2023-03-26T05:01:18.616Z,6.63
2023-03-26T05:03:46.050Z,6.67
2023-03-26T05:06:13.743Z,6.71
2023-03-26T05:08:42.033Z,6.77
2023-03-26T05:11:11.667Z,6.81
2023-03-26T05:13:39.552Z,6.83
2023-03-26T05:16:06.650Z,6.85
2023-03-26T05:18:33.467Z,6.87
2023-03-26T05:21:00.207Z,6.85
2023-03-26T05:23:26.980Z,6.87
2023-03-26T05:25:53.741Z,6.87
2023-03-26T05:28:24.338Z,6.86
2023-03-26T05:30:54.449Z,6.84
2023-03-26T05:33:22.709Z,6.84
2023-03-26T05:36:03.234Z,6.85
2023-03-26T05:38:31.035Z,6.87
2023-03-26T05:40:59.650Z,6.88
2023-03-26T05:43:26.930Z,6.88
2023-03-26T05:45:54.117Z,6.89
2023-03-26T05:48:21.713Z,6.89
2023-03-26T05:50:50.111Z,6.91
2023-03-26T05:53:18.264Z,6.93
2023-03-26T05:55:46.627Z,6.94
2023-03-26T05:58:13.969Z,6.98
2023-03-26T06:00:40.602Z,7.02
2023-03-26T06:03:12.609Z,7.05
2023-03-26T06:05:40.460Z,7.10
2023-03-26T06:08:07.872Z,7.14
2023-03-26T06:10:37.718Z,7.20
2023-03-26T06:13:04.401Z,7.24
2023-03-26T06:15:31.275Z,7.28
2023-03-26T06:17:57.882Z,7.32
2023-03-26T06:20:24.624Z,7.33
2023-03-26T06:22:52.036Z,7.36
2023-03-26T06:25:19.151Z,7.37
2023-03-26T06:27:45.957Z,7.36
2023-03-26T06:30:12.905Z,7.38
2023-03-26T06:32:39.592Z,7.41
2023-03-26T06:35:06.781Z,7.46
2023-03-26T06:37:33.900Z,7.48
2023-03-26T06:40:00.554Z,7.51
2023-03-26T06:43:06.678Z,7.53
2023-03-26T06:45:14.587Z,7.56
2023-03-26T06:47:41.524Z,7.61
2023-03-26T06:50:08.766Z,7.65
2023-03-26T06:52:35.511Z,7.67
2023-03-26T06:55:02.145Z,7.73
2023-03-26T06:57:28.649Z,7.77
2023-03-26T06:59:55.555Z,7.84
2023-03-26T07:02:22.247Z,7.85
2023-03-26T07:04:48.968Z,7.86
2023-03-26T07:07:15.769Z,7.93
2023-03-26T07:09:42.340Z,7.98
2023-03-26T07:12:10.058Z,8.03
2023-03-26T07:14:38.750Z,8.10
2023-03-26T07:17:05.730Z,8.12
2023-03-26T07:19:33.020Z,8.17
2023-03-26T07:22:00.193Z,8.22
2023-03-26T07:24:27.245Z,8.25
2023-03-26T07:27:08.143Z,8.31
2023-03-26T07:29:52.460Z,8.41
2023-03-26T07:32:34.147Z,8.47
2023-03-26T07:35:32.054Z,8.56
2023-03-26T07:38:31.394Z,8.70
2023-03-26T07:41:20.983Z,8.76
2023-03-26T07:44:12.247Z,8.76
2023-03-26T07:46:39.267Z,8.84
2023-03-26T07:49:06.307Z,8.92
2023-03-26T07:51:33.816Z,8.94
2023-03-26T07:54:00.908Z,8.95
2023-03-26T07:56:36.608Z,9.01
2023-03-26T07:59:43.854Z,9.05
2023-03-26T08:02:32.274Z,9.15
2023-03-26T08:05:19.757Z,9.27
2023-03-26T08:07:53.078Z,9.42
2023-03-26T08:10:42.354Z,9.50
2023-03-26T08:13:20.038Z,9.61
2023-03-26T08:16:05.547Z,9.69
2023-03-26T08:18:46.623Z,9.75
2023-03-26T08:21:22.934Z,9.81
2023-03-26T08:24:20.224Z,9.87
2023-03-26T08:26:59.558Z,9.96
2023-03-26T08:29:51.697Z,10.08
2023-03-26T08:32:19.995Z,10.13
2023-03-26T08:34:46.910Z,10.23
2023-03-26T08:37:13.411Z,10.33
2023-03-26T08:39:42.237Z,10.39
2023-03-26T08:42:40.147Z,10.43
2023-03-26T08:45:33.726Z,10.47
2023-03-26T08:48:17.451Z,10.49
2023-03-26T08:51:13.548Z,10.58
2023-03-26T08:53:56.312Z,10.67
2023-03-26T08:56:39.477Z,10.75
2023-03-26T08:59:31.000Z,10.96
2023-03-26T09:02:11.240Z,11.10
2023-03-26T09:04:53.928Z,11.23
2023-03-26T09:07:46.993Z,11.34
2023-03-26T09:10:19.550Z,11.50
2023-03-26T09:12:49.678Z,11.62
2023-03-26T09:16:16.748Z,11.60
2023-03-26T09:19:29.058Z,11.69
2023-03-26T09:22:26.692Z,11.94
2023-03-26T09:25:13.449Z,11.99
2023-03-26T09:27:50.945Z,11.95
2023-03-26T09:30:28.212Z,11.86
2023-03-26T09:33:31.482Z,11.78
2023-03-26T09:36:46.283Z,11.71
2023-03-26T09:39:46.972Z,11.60
2023-03-26T09:42:42.395Z,11.50
2023-03-26T09:45:18.096Z,11.45
2023-03-26T09:48:05.986Z,11.37
2023-03-26T09:50:42.417Z,11.21
2023-03-26T09:53:30.720Z,11.07
2023-03-26T09:56:11.821Z,11.02
2023-03-26T09:58:38.293Z,10.98
2023-03-26T10:01:14.559Z,10.96
2023-03-26T10:04:17.664Z,10.98
2023-03-26T10:06:54.287Z,11.06
2023-03-26T10:09:37.558Z,11.18
2023-03-26T10:12:36.852Z,11.29
2023-03-26T10:15:32.556Z,11.45
2023-03-26T10:18:29.662Z,11.56
2023-03-26T10:21:12.261Z,11.68
2023-03-26T10:23:45.286Z,11.83
2023-03-26T10:26:30.799Z,11.89
2023-03-26T10:29:16.372Z,11.94
2023-03-26T10:31:44.748Z,11.96
2023-03-26T10:34:44.892Z,11.96
2023-03-26T10:37:20.653Z,12.04
2023-03-26T10:40:20.250Z,12.05
2023-03-26T10:43:17.131Z,11.93
2023-03-26T10:45:46.785Z,11.87
2023-03-26T10:48:25.637Z,11.81
2023-03-26T10:51:04.259Z,11.73
2023-03-26T10:53:47.749Z,11.69
2023-03-26T10:56:35.489Z,11.76
2023-03-26T10:59:07.232Z,11.76
2023-03-26T11:01:55.933Z,11.78
2023-03-26T11:04:40.778Z,11.81
2023-03-26T11:07:30.939Z,11.82
2023-03-26T11:10:08.320Z,11.85
2023-03-26T11:12:34.816Z,11.91
2023-03-26T11:15:22.764Z,11.93
2023-03-26T11:18:07.836Z,12.00
2023-03-26T11:20:55.441Z,12.16
2023-03-26T11:24:04.895Z,12.40
2023-03-26T11:26:55.827Z,12.63
2023-03-26T11:29:57.381Z,12.92
2023-03-26T11:32:31.842Z,13.20
2023-03-26T11:35:06.084Z,13.44
2023-03-26T11:37:42.258Z,13.69
2023-03-26T11:40:20.208Z,13.92
2023-03-26T11:42:49.868Z,14.10
2023-03-26T11:45:21.020Z,14.16
2023-03-26T11:48:04.080Z,14.16
2023-03-26T11:50:35.721Z,14.22
2023-03-26T11:53:12.811Z,14.18
2023-03-26T11:55:44.353Z,14.07
2023-03-26T11:58:39.332Z,13.88
2023-03-26T12:01:17.360Z,13.74
2023-03-26T12:04:03.607Z,13.64
2023-03-26T12:06:30.263Z,13.64
2023-03-26T12:08:57.391Z,13.68
2023-03-26T12:11:33.219Z,13.70
2023-03-26T12:14:04.019Z,13.65
2023-03-26T12:16:30.616Z,13.58
2023-03-26T12:19:19.521Z,13.54
2023-03-26T12:21:51.833Z,13.45
2023-03-26T12:24:35.991Z,13.46
2023-03-26T12:27:24.890Z,13.41
2023-03-26T12:29:52.564Z,13.37
2023-03-26T12:32:19.179Z,13.34
2023-03-26T12:34:46.096Z,13.36
2023-03-26T12:37:35.731Z,13.35
2023-03-26T12:40:26.010Z,13.33
2023-03-26T12:44:56.639Z,13.41
2023-03-26T12:45:43.676Z,13.53
2023-03-26T12:48:13.249Z,13.61
2023-03-26T12:50:45.633Z,13.66
2023-03-26T12:53:46.376Z,13.69
2023-03-26T12:56:40.597Z,13.72
2023-03-26T12:59:21.951Z,13.84
2023-03-26T13:02:29.441Z,13.80
2023-03-26T13:05:05.735Z,13.65
2023-03-26T13:07:53.716Z,13.52
2023-03-26T13:10:26.664Z,13.44
2023-03-26T13:13:31.058Z,13.21
2023-03-26T13:16:03.834Z,13.09
2023-03-26T13:18:36.505Z,13.02
2023-03-26T13:21:22.989Z,12.91
2023-03-26T13:24:05.970Z,12.58
2023-03-26T13:27:02.044Z,12.44
2023-03-26T13:29:46.869Z,12.30
2023-03-26T13:32:34.526Z,12.22
2023-03-26T13:35:16.471Z,12.14
2023-03-26T13:38:01.829Z,11.95
2023-03-26T13:40:53.233Z,11.82
2023-03-26T13:43:46.563Z,11.84
2023-03-26T13:46:43.064Z,11.86
2023-03-26T13:49:13.149Z,11.91
2023-03-26T13:52:03.034Z,11.93
2023-03-26T13:54:44.802Z,11.82
2023-03-26T13:57:21.606Z,11.81
2023-03-26T13:59:50.352Z,11.71
2023-03-26T14:02:42.690Z,11.76
2023-03-26T14:05:48.854Z,11.84
2023-03-26T14:08:25.805Z,11.87
2023-03-26T14:10:56.362Z,11.89
2023-03-26T14:13:36.091Z,11.79
2023-03-26T14:16:24.267Z,11.71
2023-03-26T14:19:24.768Z,11.52
2023-03-26T14:22:01.934Z,11.44
2023-03-26T14:24:48.604Z,11.41
2023-03-26T14:27:38.317Z,11.40
2023-03-26T14:30:42.412Z,11.41
2023-03-26T14:33:38.663Z,11.34
2023-03-26T14:36:27.172Z,11.20
2023-03-26T14:39:26.413Z,11.26
2023-03-26T14:42:08.687Z,11.34
2023-03-26T14:44:50.644Z,11.21
2023-03-26T14:47:19.038Z,11.08
2023-03-26T14:50:22.732Z,11.05
2023-03-26T14:52:51.962Z,11.08
2023-03-26T14:55:56.793Z,11.12
2023-03-26T14:58:51.134Z,11.24
2023-03-26T15:01:23.653Z,11.32
2023-03-26T15:04:47.167Z,11.32
2023-03-26T15:07:41.934Z,11.25
2023-03-26T15:10:18.650Z,11.29
2023-03-26T15:13:03.678Z,11.23
2023-03-26T15:15:53.951Z,11.14
2023-03-26T15:18:24.948Z,11.12
2023-03-26T15:21:10.616Z,11.03
2023-03-26T15:24:25.466Z,10.87
2023-03-26T15:27:22.603Z,10.80
2023-03-26T15:30:12.384Z,10.75
2023-03-26T15:33:07.658Z,10.72
2023-03-26T15:35:38.051Z,10.65
2023-03-26T15:38:38.614Z,10.65
2023-03-26T15:41:18.035Z,10.67
2023-03-26T15:47:01.812Z,10.48
2023-03-26T15:49:55.177Z,10.51
2023-03-26T15:52:31.302Z,10.42
2023-03-26T15:55:31.400Z,10.33
2023-03-26T15:58:25.591Z,10.35
2023-03-26T16:01:03.991Z,10.27
2023-03-26T16:03:48.068Z,10.21
2023-03-26T16:06:36.741Z,10.08
2023-03-26T16:09:17.053Z,10.01
2023-03-26T16:12:04.371Z,9.92
2023-03-26T16:14:46.879Z,9.87
2023-03-26T16:17:17.813Z,9.80
2023-03-26T16:19:44.268Z,9.70
2023-03-26T16:22:42.536Z,9.66
2023-03-26T16:25:33.613Z,9.59
2023-03-26T16:28:22.879Z,9.52
2023-03-26T16:31:37.792Z,9.49
2023-03-26T16:34:07.136Z,9.38
2023-03-26T16:36:35.531Z,9.37
2023-03-26T16:39:11.582Z,9.36
2023-03-26T16:41:50.146Z,9.25
2023-03-26T16:44:38.638Z,9.18
2023-03-26T16:47:21.997Z,9.07
2023-03-26T16:50:08.644Z,8.98
2023-03-26T16:52:54.918Z,8.91
2023-03-26T16:55:46.955Z,8.84
2023-03-26T16:58:13.578Z,8.77
2023-03-26T17:01:06.408Z,8.71
2023-03-26T17:03:45.040Z,8.62
2023-03-26T17:06:33.802Z,8.56
2023-03-26T17:09:03.904Z,8.48
2023-03-26T17:11:56.571Z,8.40
2023-03-26T17:14:49.006Z,8.33
2023-03-26T17:17:38.026Z,8.26
2023-03-26T17:20:32.788Z,8.17
2023-03-26T17:23:28.463Z,8.11
2023-03-26T17:26:07.174Z,8.04
2023-03-26T17:29:00.319Z,7.99
2023-03-26T17:31:58.548Z,7.94
2023-03-26T17:34:50.466Z,7.85
2023-03-26T17:37:16.979Z,7.79
2023-03-26T17:39:43.526Z,7.73
2023-03-26T17:42:16.148Z,7.67
2023-03-26T17:44:53.084Z,7.64
2023-03-26T17:47:26.770Z,7.60
2023-03-26T17:50:00.544Z,7.58
2023-03-26T17:52:48.080Z,7.54
2023-03-26T17:55:27.803Z,7.52
2023-03-26T17:57:57.844Z,7.51
2023-03-26T18:00:29.207Z,7.49
2023-03-26T18:03:01.369Z,7.44
2023-03-26T18:05:30.857Z,7.42
2023-03-26T18:08:02.041Z,7.36
2023-03-26T18:11:26.838Z,7.30
2023-03-26T18:14:08.785Z,7.24
2023-03-26T18:16:46.069Z,7.20
2023-03-26T18:19:22.849Z,7.16
2023-03-26T18:21:52.485Z,7.11
2023-03-26T18:24:41.256Z,7.05
2023-03-26T18:27:14.779Z,7.01
2023-03-26T18:29:56.372Z,6.93
2023-03-26T18:32:33.383Z,6.84
2023-03-26T18:35:13.596Z,6.76
2023-03-26T18:37:44.085Z,6.70
2023-03-26T18:40:20.996Z,6.64
2023-03-26T18:42:57.815Z,6.54
2023-03-26T18:45:37.448Z,6.46
2023-03-26T18:48:22.958Z,6.39
2023-03-26T18:51:06.712Z,6.33
2023-03-26T18:53:41.157Z,6.33
2023-03-26T18:56:38.919Z,6.30
2023-03-26T18:59:28.383Z,6.27
2023-03-26T19:01:57.837Z,6.20
2023-03-26T19:04:27.197Z,6.16
2023-03-26T19:06:56.182Z,6.12
2023-03-26T19:09:31.514Z,6.14
2023-03-26T19:12:16.216Z,6.12
2023-03-26T19:15:13.664Z,6.04
2023-03-26T19:17:44.794Z,6.02
2023-03-26T19:20:40.120Z,5.98
2023-03-26T19:23:08.845Z,5.90
2023-03-26T19:25:47.896Z,5.90
2023-03-26T19:28:19.800Z,5.89
2023-03-26T19:30:46.614Z,5.86
2023-03-26T19:33:20.400Z,5.83
2023-03-26T19:36:02.144Z,5.78
2023-03-26T19:38:37.700Z,5.75
2023-03-26T19:41:04.598Z,5.69
2023-03-26T19:43:31.161Z,5.64
2023-03-26T19:46:01.233Z,5.61
2023-03-26T19:48:46.589Z,5.55
2023-03-26T19:51:26.147Z,5.49
2023-03-26T19:53:55.979Z,5.45
2023-03-26T19:56:22.928Z,5.39
2023-03-26T19:58:52.603Z,5.34
2023-03-26T20:01:21.022Z,5.25
2023-03-26T20:03:50.507Z,5.17
2023-03-26T20:06:22.189Z,5.10
2023-03-26T20:08:55.428Z,5.00
2023-03-26T20:11:36.672Z,4.89
2023-03-26T20:14:12.643Z,4.80
2023-03-26T20:16:40.065Z,4.71
2023-03-26T20:19:08.769Z,4.62
2023-03-26T20:21:35.433Z,4.50
2023-03-26T20:24:02.085Z,4.42
2023-03-26T20:26:28.640Z,4.35
2023-03-26T20:28:55.106Z,4.30
2023-03-26T20:31:25.006Z,4.22
2023-03-26T20:33:53.443Z,4.16
2023-03-26T20:36:33.215Z,4.14
2023-03-26T20:39:05.543Z,4.09
2023-03-26T20:41:32.732Z,4.06
2023-03-26T20:43:59.209Z,4.04
2023-03-26T20:46:30.979Z,4.02
2023-03-26T20:48:59.650Z,3.97
2023-03-26T20:51:28.790Z,3.93
2023-03-26T20:53:56.084Z,3.89
2023-03-26T20:56:23.421Z,3.86
2023-03-26T20:59:03.725Z,3.84
2023-03-26T21:01:37.752Z,3.81
2023-03-26T21:04:04.427Z,3.81
2023-03-26T21:06:31.226Z,3.81
2023-03-26T21:08:58.306Z,3.83
2023-03-26T21:11:49.996Z,3.85
2023-03-26T21:14:24.460Z,3.85
2023-03-26T21:16:51.887Z,3.87
2023-03-26T21:19:19.031Z,3.87
2023-03-26T21:21:57.655Z,3.86
2023-03-26T21:24:33.184Z,3.86
2023-03-26T21:27:37.901Z,3.83
2023-03-26T21:30:10.500Z,3.82
2023-03-26T21:32:37.256Z,3.81
2023-03-26T21:35:04.624Z,3.81
2023-03-26T21:37:31.509Z,3.80
2023-03-26T21:39:59.864Z,3.77
2023-03-26T21:42:29.238Z,3.76
2023-03-26T21:44:56.043Z,3.75
2023-03-26T21:47:23.075Z,3.72
2023-03-26T21:49:50.675Z,3.72
2023-03-26T21:52:17.583Z,3.71
2023-03-26T21:54:44.456Z,3.71
2023-03-26T21:57:26.183Z,3.68
2023-03-26T22:00:11.427Z,3.62
2023-03-26T22:03:10.351Z,3.56
2023-03-26T22:05:50.795Z,3.54
2023-03-26T22:08:29.976Z,3.51
2023-03-26T22:10:57.090Z,3.47
2023-03-26T22:13:24.506Z,3.43
2023-03-26T22:15:51.030Z,3.41
2023-03-26T22:18:21.450Z,3.36
2023-03-26T22:20:49.003Z,3.31
2023-03-26T22:23:16.846Z,3.25
2023-03-26T22:25:46.260Z,3.21
2023-03-26T22:28:12.711Z,3.17
2023-03-26T22:30:39.618Z,3.15
2023-03-26T22:33:10.885Z,3.13
2023-03-26T22:35:44.545Z,3.11
2023-03-26T22:38:11.782Z,3.09
2023-03-26T22:40:38.929Z,3.08
2023-03-26T22:43:05.519Z,3.10
2023-03-26T22:45:32.561Z,3.11
2023-03-26T22:48:03.812Z,3.11
2023-03-26T22:50:31.947Z,3.11
2023-03-26T22:52:58.547Z,3.11
2023-03-26T22:55:29.017Z,3.09
2023-03-26T22:57:56.888Z,3.09
2023-03-26T23:00:23.655Z,3.08
2023-03-26T23:02:50.178Z,3.09
2023-03-26T23:05:17.640Z,3.08
2023-03-26T23:07:46.157Z,3.08
2023-03-26T23:10:13.790Z,3.05
2023-03-26T23:12:41.855Z,3.04
2023-03-26T23:15:09.743Z,3.03
2023-03-26T23:17:38.679Z,3.00
2023-03-26T23:20:13.561Z,3.00
2023-03-26T23:22:40.828Z,2.99
2023-03-26T23:25:07.776Z,2.98
2023-03-26T23:27:35.735Z,2.99
2023-03-26T23:30:04.197Z,2.98
2023-03-26T23:32:31.446Z,2.97
2023-03-26T23:34:57.978Z,2.96
2023-03-26T23:37:24.632Z,2.97
2023-03-26T23:39:51.994Z,2.98
2023-03-26T23:42:29.167Z,2.98
2023-03-26T23:44:57.323Z,3.00
2023-03-26T23:47:24.508Z,2.99
2023-03-26T23:49:51.193Z,2.99
2023-03-26T23:52:18.435Z,3.00
2023-03-26T23:54:45.738Z,3.00
2023-03-26T23:57:12.877Z,3.00
2023-03-26T23:59:41.513Z,3.00
